Challenge Cours la Province !

Le Jogging Wanzois De L'An Neuf - Antheit (11.20 km)

dimanche 09 janvier 2022

Vous pouvez trouver Le classement original sur : www.otopservices.be  
CHALLENGE COURS LA PROVINCE
LE JOGGING WANZOIS DE L'AN NEUF - ANTHEIT
DISTANCE : 11.20 km
dimanche 09 janvier 2022
 
Place dos NOM Catégorie Pl/cat temps temps/km Vitesse
01:00:00              
1 701 PATRICK PHILIPPE VÉTÉRAN 2 1 00:43:05 03:51 15.60
2 755 DAVID FRISON VETERAN 1 1 00:47:03 04:12 14.28
3 671 OLIVIER HEMMER VÉTÉRAN 2 2 00:47:31 04:15 14.14
4 667 LUDOVIC RICHEL SENIOR H 1 00:47:31 04:15 14.14
5 702 IRENE TOSI SENIOR D 1 00:47:32 04:15 14.14
6 732 JEROME VAN DOOREN VETERAN 1 2 00:49:04 04:23 13.70
7 733 BERTRAND LELEUX VETERAN 1 3 00:51:41 04:37 13.00
8 705 ROMUALD COOSEMANS SENIOR H 2 00:52:01 04:39 12.92
9 692 JEAN-BAPTISTE BOUDRON VETERAN 1 4 00:52:25 04:41 12.82
10 740 MEHDI JAMART SENIOR H 3 00:52:36 04:42 12.78
11 698 OLIVIER GAILLET SENIOR H 4 00:54:24 04:51 12.35
12 731 EVELYNE WESPHAEL AINÉE 1 1 00:54:57 04:54 12.23
13 715 BASTIEN TURMINE SENIOR H 5 00:55:30 04:57 12.11
14 716 CHRISTIAN AKKERMANS VETERAN 3 1 00:55:47 04:59 12.05
15 672 LAURENCE DRESSEN AINÉE 1 2 00:55:57 05:00 12.01
16 747 LAMBRINY PHILIS AINÉE 1 3 00:56:02 05:00 11.99
17 713 MARC PAQUAY VETERAN 1 5 00:56:02 05:00 11.99
18 662 FREDERIC GRAINDORGE VÉTÉRAN 2 3 00:56:09 05:01 11.97
19 744 ISABELLE NEURAY AINÉE 2 1 00:57:35 05:08 11.67
20 686 LILIAN THONET AINÉE 1 4 00:58:02 05:11 11.58
21 746 VALENTINE SEIVERT SENIOR D 2 00:58:31 05:13 11.49
22 664 JULIEN DOGNAUX VETERAN 1 6 00:59:15 05:17 11.34
23 756 DIDIER DENDAL VÉTÉRAN 2 4 01:00:21 05:23 11.14
24 653 MICHAEL BIALOBOS VETERAN 1 7 01:00:55 05:26 11.03
25 679 CHRISTOPHE RIGO VETERAN 1 8 01:00:58 05:27 11.02
26 677 LAURENT KLINKENBERG VETERAN 1 9 01:01:10 05:28 10.99
27 739 PATRICK HUMBLET VÉTÉRAN 2 5 01:03:37 05:41 10.56
28 752 FLORENCE SOMJA SENIOR D 3 01:03:43 05:41 10.55
29 675 DIDIER DENDAL VÉTÉRAN 2 6 01:04:21 05:45 10.44
30 663 RAPHAEL VILLAFRATE SENIOR H 6 01:04:50 05:47 10.37
31 748 ERIC BOVEROUL VÉTÉRAN 2 7 01:04:57 05:48 10.35
32 710 ROMAIN FERRI SENIOR H 7 01:05:07 05:49 10.32
33 719 NICOLAS BARON SENIOR H 8 01:05:17 05:50 10.30
34 717 ANTOINE AOUICHA VETERAN 1 10 01:05:18 05:50 10.29
35 654 FREDERIC HENROTAY VÉTÉRAN 2 8 01:05:22 05:50 10.28
36 758 JULIEN GALDEROUX SENIOR H 9 01:05:41 05:52 10.23
37 759 PAULINE SCIUS SENIOR D 4 01:05:42 05:52 10.23
38 742 EVELYNE CUPERS AINÉE 2 2 01:05:46 05:52 10.22
39 729 GEOFFREY DONY VETERAN 1 11 01:05:51 05:53 10.21
40 691 CHRISTIAN COUNET VETERAN 3 2 01:06:10 05:54 10.16
41 712 JEAN-CLAUDE DHOOGE VÉTÉRAN 2 9 01:06:11 05:55 10.16
42 711 DIANA GAIOTTI AINÉE 2 3 01:06:13 05:55 10.15
43 709 MAXIME BURNON SENIOR H 10 01:06:28 05:56 10.11
44 726 MANU LEONET VETERAN 1 12 01:06:45 05:58 10.07
45 687 FABRIZIO PEDATA VETERAN 1 13 01:07:09 06:00 10.01
46 725 ERIC EVRARD VETERAN 1 14 01:07:27 06:01 9.96
47 668 CHRISTINE CORDIER AINÉE 2 4 01:07:38 06:02 9.94
48 669 ANJA VANDEWEYER AINÉE 2 5 01:07:38 06:02 9.94
49 678 MICHEL BORGS VÉTÉRAN 2 10 01:07:50 06:03 9.91
50 694 NATHALIE STEIMES AINÉE 2 6 01:07:54 06:04 9.90
51 689 MARIE-HELENE DELREZ AINÉE 2 7 01:07:54 06:04 9.90
52 738 ANNICK BOSSELOIR AINÉE 2 8 01:08:13 06:05 9.85
53 706 CHRISTOPHE CHRISTIAENS VÉTÉRAN 2 11 01:08:58 06:09 9.75
54 661 THOMAS SULEAU SENIOR H 11 01:09:04 06:10 9.73
55 652 DAVID VILCOT VETERAN 1 15 01:09:31 06:12 9.67
56 674 FREDERIC LAFORGE VETERAN 1 16 01:09:41 06:13 9.65
57 659 ASTRID LACROIX AINÉE 2 9 01:09:56 06:15 9.61
58 655 ADRIEN BERTRAND SENIOR H 12 01:10:07 06:16 9.59
59 737 SANDRINE LECLERCQ SENIOR D 5 01:10:19 06:17 9.56
60 660 PIERRE GIJSEN VETERAN 1 17 01:10:24 06:17 9.55
61 685 LUCIEN COLLARD VETERAN 3 3 01:10:40 06:19 9.51
62 761 CHILDERIC RENARD VETERAN 1 18 01:10:57 06:20 9.47
63 683 PIERRE LUCAS VETERAN 3 4 01:11:17 06:22 9.43
64 676 CARINE MUNAUT AINÉE 2 10 01:11:19 06:22 9.42
65 718 BLANDINE VANBELLINGHEN AINÉE 1 5 01:11:49 06:25 9.36
66 720 LAURENT DE BARSY VETERAN 1 19 01:12:06 06:26 9.32
67 721 MICHEL MANCINI VÉTÉRAN 4 1 01:12:21 06:28 9.29
68 695 FARIDA DARSSI AINÉE 2 11 01:12:45 06:30 9.24
69 693 CHRISTOPHE MOERS VETERAN 1 20 01:13:06 06:32 9.19
70 688 DOMINIQUE JAMIN SENIOR D 6 01:13:06 06:32 9.19
71 724 MARYLINE KLAURENS AINÉE 1 6 01:13:35 06:34 9.13
72 723 BERNARD DEGHAYE VÉTÉRAN 2 12 01:13:36 06:34 9.13
73 730 FRANCIS DANIEL NAVARRO VÉTÉRAN 2 13 01:13:44 06:35 9.12
74 727 LIONEL GAUDISSEUR SENIOR H 13 01:13:46 06:35 9.11
75 699 REGIS CHAMPAGNE VETERAN 1 21 01:13:50 06:35 9.10
76 697 ARIELLE TANASE AINÉE 2 12 01:13:55 06:36 9.09
77 684 CAROLINE FEKETE AINÉE 2 13 01:13:56 06:36 9.09
78 757 VIRGINIE HOUBART SENIOR D 7 01:14:08 06:37 9.07
79 754 VALERIE DURELLO AINÉE 1 7 01:14:31 06:39 9.02
80 750 OLIVIER MASCAUX VÉTÉRAN 2 14 01:14:58 06:42 8.97
81 749 AXEL SMEYERS SENIOR H 14 01:15:04 06:42 8.95
82 665 HUGO RADDOUX VETERAN 3 5 01:15:12 06:43 8.94
83 714 ANAIS PAQUAY SENIOR D 8 01:15:31 06:44 8.90
84 703 CHARLOTTE ROUXHET AINÉE 1 8 01:17:50 06:57 8.64
85 704 PHILIPPE RADOUX VÉTÉRAN 2 15 01:17:52 06:57 8.63
86 751 HUGUES BOTQUIN VÉTÉRAN 2 16 01:18:34 07:01 8.55
87 762 LUCAS RENARD ESPOIR H 1 01:19:19 07:05 8.47
88 690 MAGALI LAMINE AINÉE 1 9 01:19:28 07:06 8.46
89 658 LUDIVINE VANDEWEYER AINÉE 1 10 01:19:34 07:06 8.45
90 670 SABRINA GUSTIN AINÉE 1 11 01:21:01 07:14 8.30
91 673 RAYMOND LENAERTS VETERAN 3 6 01:21:45 07:18 8.22
92 666 MANUEL DEHARO SANCHEZ VÉTÉRAN 4 2 01:23:34 07:28 8.04
93 682 JEAN-LUC FONTAINE VÉTÉRAN 2 17 01:23:35 07:28 8.04
94 657 CLAUDE LARMINIER VETERAN 3 7 01:24:15 07:31 7.98
95 680 ERIC ALBERT VÉTÉRAN 2 18 01:24:21 07:32 7.97
96 700 CORINNE PEETERS AINÉE 3 1 01:24:35 07:33 7.95
97 651 YAN REMY VETERAN 1 22 01:24:48 07:34 7.93
98 708 JEANNINE JOIRIS AINÉE 2 14 01:28:40 07:55 7.58
99 656 DAVID CRANINX SENIOR H 15 01:31:11 08:08 7.37
100 734 PIERRE OLIVIER VETERAN 3 8 01:41:15 09:02 6.64
101 728 PATRICK CRANINX VETERAN 3 9 01:41:58 09:06 6.59
               
Nos dernières videos